createdAt,value
2023-01-17T00:00:30.324Z,91.72
2023-01-17T00:03:33.874Z,90.92
2023-01-17T00:06:54.534Z,90.07
2023-01-17T00:09:59.176Z,90.25
2023-01-17T00:13:03.583Z,90.36
2023-01-17T00:16:06.601Z,90.60
2023-01-17T00:19:27.461Z,90.39
2023-01-17T00:22:50.223Z,89.40
2023-01-17T00:26:04.997Z,89.46
2023-01-17T00:29:07.320Z,91.01
2023-01-17T00:32:09.619Z,91.33
2023-01-17T00:35:11.947Z,91.33
2023-01-17T00:38:16.558Z,90.85
2023-01-17T00:41:18.934Z,90.32
2023-01-17T00:44:39.551Z,89.59
2023-01-17T00:48:03.537Z,90.29
2023-01-17T00:51:24.741Z,91.03
2023-01-17T00:54:45.478Z,90.48
2023-01-17T00:58:06.169Z,90.48
2023-01-17T01:01:26.904Z,90.91
2023-01-17T01:04:47.932Z,90.74
2023-01-17T01:08:09.167Z,90.94
2023-01-17T01:11:33.987Z,90.64
2023-01-17T01:14:54.573Z,90.57
2023-01-17T01:18:15.161Z,90.81
2023-01-17T01:21:35.813Z,90.59
2023-01-17T01:24:56.567Z,90.72
2023-01-17T01:28:25.738Z,89.91
2023-01-17T01:31:46.421Z,89.87
2023-01-17T01:34:48.811Z,90.02
2023-01-17T01:37:51.146Z,89.56
2023-01-17T01:40:56.148Z,89.99
2023-01-17T01:43:58.585Z,89.92
2023-01-17T01:47:01.096Z,89.49
2023-01-17T01:50:07.200Z,89.85
2023-01-17T01:53:10.789Z,90.15
2023-01-17T01:56:15.324Z,89.34
2023-01-17T01:59:20.817Z,89.65
2023-01-17T02:02:23.290Z,90.08
2023-01-17T02:05:29.207Z,90.00
2023-01-17T02:08:31.687Z,90.00
2023-01-17T02:11:36.081Z,88.99
2023-01-17T02:14:38.440Z,89.18
2023-01-17T02:18:37.900Z,90.01
2023-01-17T02:22:15.757Z,90.21
2023-01-17T02:25:26.793Z,89.77
2023-01-17T02:29:10.945Z,90.16
2023-01-17T02:32:38.061Z,90.25
2023-01-17T02:35:44.752Z,90.18
2023-01-17T02:39:09.414Z,89.51
2023-01-17T02:42:17.939Z,89.10
2023-01-17T02:45:20.960Z,88.63
2023-01-17T02:48:27.549Z,88.68
2023-01-17T02:51:42.145Z,88.13
2023-01-17T02:54:44.465Z,89.33
2023-01-17T02:57:58.004Z,89.31
2023-01-17T03:01:03.135Z,89.74
2023-01-17T03:04:44.560Z,89.67
2023-01-17T03:07:48.420Z,90.02
2023-01-17T03:10:50.825Z,90.40
2023-01-17T03:13:57.300Z,90.27
2023-01-17T03:16:59.895Z,89.66
2023-01-17T03:20:02.348Z,90.09
2023-01-17T03:23:04.717Z,89.73
2023-01-17T03:26:07.198Z,89.37
2023-01-17T03:29:09.828Z,88.98
2023-01-17T03:32:12.289Z,88.77
2023-01-17T03:35:14.762Z,89.30
2023-01-17T03:38:17.361Z,89.04
2023-01-17T03:41:19.828Z,88.71
2023-01-17T03:44:22.456Z,89.00
2023-01-17T03:47:24.826Z,89.62
2023-01-17T03:50:27.278Z,89.06
2023-01-17T03:53:29.673Z,88.50
2023-01-17T03:56:32.011Z,89.17
2023-01-17T03:59:34.666Z,89.52
2023-01-17T04:02:37.455Z,88.74
2023-01-17T04:05:39.799Z,88.23
2023-01-17T04:08:42.498Z,88.81
2023-01-17T04:11:45.489Z,89.07
2023-01-17T04:14:48.224Z,89.68
2023-01-17T04:17:50.680Z,89.65
2023-01-17T04:20:53.050Z,89.57
2023-01-17T04:23:55.365Z,89.03
2023-01-17T04:26:57.794Z,89.12
2023-01-17T04:30:00.222Z,89.39
2023-01-17T04:33:03.056Z,89.46
2023-01-17T04:36:06.647Z,89.43
2023-01-17T04:39:09.084Z,89.15
2023-01-17T04:42:11.408Z,89.69
2023-01-17T04:45:14.415Z,89.67
2023-01-17T04:48:17.017Z,90.22
2023-01-17T04:51:19.590Z,89.70
2023-01-17T04:54:22.110Z,89.39
2023-01-17T04:57:25.248Z,90.13
2023-01-17T05:00:27.673Z,89.20
2023-01-17T05:03:30.535Z,89.89
2023-01-17T05:06:32.882Z,89.65
2023-01-17T05:09:35.464Z,90.53
2023-01-17T05:12:37.889Z,91.01
2023-01-17T05:15:40.533Z,90.66
2023-01-17T05:18:42.921Z,91.28
2023-01-17T05:21:45.282Z,91.96
2023-01-17T05:24:48.149Z,91.51
2023-01-17T05:27:50.813Z,91.78
2023-01-17T05:30:53.273Z,91.80
2023-01-17T05:33:55.788Z,91.52
2023-01-17T05:36:59.065Z,91.21
2023-01-17T05:40:01.447Z,91.37
2023-01-17T05:43:04.193Z,91.90
2023-01-17T05:46:06.642Z,91.80
2023-01-17T05:49:09.126Z,92.34
2023-01-17T05:52:11.500Z,92.55
2023-01-17T05:55:13.912Z,93.00
2023-01-17T05:58:19.714Z,93.25
2023-01-17T06:01:22.373Z,93.88
2023-01-17T06:04:24.772Z,93.88
2023-01-17T06:07:27.110Z,94.10
2023-01-17T06:10:29.739Z,93.50
2023-01-17T06:13:32.663Z,93.62
2023-01-17T06:16:35.340Z,92.71
2023-01-17T06:19:37.700Z,92.75
2023-01-17T06:22:40.079Z,92.50
2023-01-17T06:25:45.062Z,93.03
2023-01-17T06:28:48.032Z,92.18
2023-01-17T06:31:50.633Z,91.65
2023-01-17T06:34:53.004Z,91.99
2023-01-17T06:37:58.106Z,92.10
2023-01-17T06:41:04.408Z,92.73
2023-01-17T06:44:07.819Z,92.45
2023-01-17T06:47:10.242Z,91.32
2023-01-17T06:50:14.643Z,92.49
2023-01-17T06:53:17.232Z,91.41
2023-01-17T06:56:20.042Z,91.72
2023-01-17T06:59:22.398Z,90.96
2023-01-17T07:02:25.057Z,91.97
2023-01-17T07:05:29.131Z,92.40
2023-01-17T07:08:33.549Z,89.96
2023-01-17T07:11:37.419Z,90.12
2023-01-17T07:14:40.885Z,89.98
2023-01-17T07:17:43.971Z,89.39
2023-01-17T07:20:46.893Z,90.43
2023-01-17T07:23:49.441Z,89.39
2023-01-17T07:26:51.965Z,89.01
2023-01-17T07:29:54.555Z,89.08
2023-01-17T07:32:56.988Z,89.81
2023-01-17T07:36:03.982Z,89.45
2023-01-17T07:39:06.501Z,89.10
2023-01-17T07:42:09.329Z,88.59
2023-01-17T07:45:14.222Z,88.62
2023-01-17T07:48:18.344Z,89.39
2023-01-17T07:51:20.751Z,89.51
2023-01-17T07:54:24.166Z,88.23
2023-01-17T07:57:26.525Z,90.01
2023-01-17T08:00:30.236Z,89.18
2023-01-17T08:03:40.231Z,88.40
2023-01-17T08:06:47.532Z,88.89
2023-01-17T08:09:50.545Z,89.06
2023-01-17T08:12:53.033Z,88.77
2023-01-17T08:15:55.472Z,90.00
2023-01-17T08:18:57.980Z,89.77
2023-01-17T08:22:00.375Z,89.67
2023-01-17T08:25:02.841Z,89.71
2023-01-17T08:28:05.490Z,89.57
2023-01-17T08:31:09.715Z,88.68
2023-01-17T08:34:14.170Z,88.76
2023-01-17T08:37:16.572Z,89.16
2023-01-17T08:40:19.814Z,88.41
2023-01-17T08:43:22.445Z,88.04
2023-01-17T08:46:24.887Z,88.01
2023-01-17T08:49:30.448Z,87.25
2023-01-17T08:52:33.956Z,86.82
2023-01-17T08:55:39.627Z,86.60
2023-01-17T08:58:42.079Z,87.01
2023-01-17T09:01:46.002Z,87.39
2023-01-17T09:04:49.929Z,87.62
2023-01-17T09:07:52.328Z,87.72
2023-01-17T09:10:54.704Z,85.74
2023-01-17T09:13:57.100Z,86.23
2023-01-17T09:16:59.500Z,83.62
2023-01-17T09:20:02.415Z,77.91
2023-01-17T09:23:04.877Z,78.79
2023-01-17T09:26:07.741Z,81.00
2023-01-17T09:29:10.249Z,79.97
2023-01-17T09:32:12.952Z,79.23
2023-01-17T09:35:15.642Z,82.59
2023-01-17T09:38:18.105Z,82.92
2023-01-17T09:41:27.998Z,83.56
2023-01-17T09:44:45.010Z,84.23
2023-01-17T09:47:53.859Z,83.70
2023-01-17T09:51:24.137Z,83.82
2023-01-17T09:54:36.672Z,83.84
2023-01-17T09:58:00.298Z,83.56
2023-01-17T10:01:15.602Z,84.62
2023-01-17T10:04:54.905Z,83.36
2023-01-17T10:08:04.371Z,82.45
2023-01-17T10:11:39.295Z,82.79
2023-01-17T10:14:55.427Z,82.17
2023-01-17T10:18:05.381Z,82.91
2023-01-17T10:21:19.856Z,82.60
2023-01-17T10:24:35.630Z,81.85
2023-01-17T10:27:41.852Z,81.46
2023-01-17T10:30:51.831Z,81.36
2023-01-17T10:33:58.370Z,80.11
2023-01-17T10:37:15.799Z,79.30
2023-01-17T10:40:29.773Z,79.34
2023-01-17T10:43:40.892Z,79.53
2023-01-17T10:46:55.624Z,79.48
2023-01-17T10:49:59.423Z,77.56
2023-01-17T10:53:16.366Z,78.64
2023-01-17T10:56:25.735Z,79.23
2023-01-17T10:59:31.814Z,78.13
2023-01-17T11:02:39.960Z,78.93
2023-01-17T11:05:43.506Z,78.20
2023-01-17T11:08:57.337Z,78.71
2023-01-17T11:11:59.697Z,78.60
2023-01-17T11:15:10.846Z,79.09
2023-01-17T11:18:19.578Z,80.14
2023-01-17T11:21:24.345Z,80.07
2023-01-17T11:24:33.377Z,78.06
2023-01-17T11:27:39.526Z,78.14
2023-01-17T11:30:52.290Z,77.21
2023-01-17T11:34:29.477Z,77.88
2023-01-17T11:37:32.071Z,78.29
2023-01-17T11:40:42.828Z,76.52
2023-01-17T11:44:20.349Z,79.44
2023-01-17T11:47:22.663Z,79.19
2023-01-17T11:50:26.634Z,79.09
2023-01-17T11:53:40.424Z,79.85
2023-01-17T11:56:46.132Z,78.35
2023-01-17T11:59:49.086Z,78.07
2023-01-17T12:03:06.408Z,78.66
2023-01-17T12:06:20.239Z,77.03
2023-01-17T12:09:35.739Z,75.01
2023-01-17T12:13:13.240Z,74.99
2023-01-17T12:16:34.132Z,74.46
2023-01-17T12:20:05.918Z,72.53
2023-01-17T12:23:28.401Z,68.79
2023-01-17T12:26:55.080Z,61.30
2023-01-17T12:30:26.145Z,63.78
2023-01-17T12:33:38.809Z,63.15
2023-01-17T12:36:49.475Z,60.11
2023-01-17T12:40:05.133Z,57.98
2023-01-17T12:43:25.407Z,60.18
2023-01-17T12:46:38.464Z,59.98
2023-01-17T12:50:00.791Z,60.66
2023-01-17T12:53:16.426Z,61.27
2023-01-17T12:56:28.613Z,68.75
2023-01-17T12:59:49.446Z,63.03
2023-01-17T13:03:24.702Z,64.28
2023-01-17T13:06:45.733Z,65.59
2023-01-17T13:10:03.373Z,68.52
2023-01-17T13:13:26.728Z,68.99
2023-01-17T13:16:59.968Z,70.08
2023-01-17T13:20:28.841Z,70.00
2023-01-17T13:23:44.945Z,72.16
2023-01-17T13:26:56.479Z,70.33
2023-01-17T13:30:22.200Z,68.05
2023-01-17T13:33:49.029Z,64.33
2023-01-17T13:36:54.199Z,63.64
2023-01-17T13:40:25.181Z,64.64
2023-01-17T13:43:39.714Z,64.96
2023-01-17T13:47:05.126Z,67.22
2023-01-17T13:50:36.395Z,67.65
2023-01-17T13:53:38.858Z,69.47
2023-01-17T13:56:41.336Z,71.50
2023-01-17T13:59:44.057Z,73.41
2023-01-17T14:02:48.029Z,73.66
2023-01-17T14:05:56.932Z,73.85
2023-01-17T14:09:08.084Z,74.64
2023-01-17T14:12:10.452Z,74.37
2023-01-17T14:15:31.281Z,74.33
2023-01-17T14:18:40.047Z,75.90
2023-01-17T14:21:42.887Z,78.10
2023-01-17T14:25:03.897Z,79.24
2023-01-17T14:28:21.851Z,78.84
2023-01-17T14:31:24.764Z,80.39
2023-01-17T14:34:27.444Z,80.99
2023-01-17T14:37:32.662Z,80.99
2023-01-17T14:40:38.500Z,81.61
2023-01-17T14:43:46.315Z,81.43
2023-01-17T14:46:49.248Z,82.73
2023-01-17T14:50:10.910Z,83.55
2023-01-17T14:53:13.376Z,83.35
2023-01-17T14:56:17.748Z,82.82
2023-01-17T14:59:22.125Z,84.15
2023-01-17T15:02:24.991Z,83.54
2023-01-17T15:05:30.185Z,84.44
2023-01-17T15:08:35.443Z,84.67
2023-01-17T15:11:38.791Z,83.08
2023-01-17T15:14:44.490Z,83.42
2023-01-17T15:17:46.955Z,83.36
2023-01-17T15:20:58.032Z,83.47
2023-01-17T15:24:07.080Z,82.21
2023-01-17T15:27:12.753Z,81.95
2023-01-17T15:30:16.118Z,83.63
2023-01-17T15:33:21.110Z,82.65
2023-01-17T15:36:30.105Z,81.93
2023-01-17T15:39:38.934Z,81.36
2023-01-17T15:42:43.582Z,80.91
2023-01-17T15:45:55.977Z,81.86
2023-01-17T15:49:17.763Z,82.54
2023-01-17T15:52:21.573Z,83.30
2023-01-17T15:55:29.734Z,82.74
2023-01-17T15:58:32.222Z,81.43
2023-01-17T16:01:34.857Z,81.65
2023-01-17T16:04:42.331Z,82.80
2023-01-17T16:07:44.839Z,82.81
2023-01-17T16:10:47.317Z,82.37
2023-01-17T16:13:50.345Z,82.66
2023-01-17T16:16:53.519Z,81.41
2023-01-17T16:19:56.014Z,82.40
2023-01-17T16:23:00.329Z,83.47
2023-01-17T16:26:02.976Z,82.43
2023-01-17T16:29:07.588Z,83.22
2023-01-17T16:32:10.146Z,83.35
2023-01-17T16:35:19.130Z,82.72
2023-01-17T16:38:21.583Z,82.79
2023-01-17T16:41:23.902Z,83.18
2023-01-17T16:44:26.248Z,82.10
2023-01-17T16:47:28.622Z,82.41
2023-01-17T16:50:31.078Z,82.50
2023-01-17T16:53:35.405Z,82.96
2023-01-17T16:56:37.848Z,83.32
2023-01-17T16:59:50.433Z,83.70
2023-01-17T17:02:53.876Z,83.13
2023-01-17T17:06:01.078Z,83.86
2023-01-17T17:09:03.702Z,83.43
2023-01-17T17:12:06.736Z,83.40
2023-01-17T17:15:10.782Z,82.94
2023-01-17T17:18:15.167Z,81.81
2023-01-17T17:21:17.525Z,81.26
2023-01-17T17:24:20.239Z,81.79
2023-01-17T17:27:26.428Z,82.17
2023-01-17T17:30:29.070Z,81.93
2023-01-17T17:33:31.438Z,81.61
2023-01-17T17:36:35.282Z,82.77
2023-01-17T17:39:38.795Z,82.85
2023-01-17T17:42:42.860Z,83.03
2023-01-17T17:45:45.290Z,83.46
2023-01-17T17:48:48.679Z,83.64
2023-01-17T17:51:51.200Z,83.74
2023-01-17T17:54:53.749Z,83.48
2023-01-17T17:57:56.593Z,83.64
2023-01-17T18:01:02.732Z,84.46
2023-01-17T18:04:07.437Z,84.07
2023-01-17T18:07:09.963Z,84.56
2023-01-17T18:10:12.317Z,84.38
2023-01-17T18:13:14.829Z,84.09
2023-01-17T18:16:26.385Z,84.75
2023-01-17T18:19:29.835Z,84.26
2023-01-17T18:22:33.548Z,85.43
2023-01-17T18:25:36.548Z,85.33
2023-01-17T18:28:38.902Z,86.12
2023-01-17T18:31:42.737Z,86.49
2023-01-17T18:34:47.069Z,86.91
2023-01-17T18:37:49.637Z,87.13
2023-01-17T18:40:52.389Z,86.83
2023-01-17T18:43:57.770Z,87.67
2023-01-17T18:47:04.734Z,87.88
2023-01-17T18:50:07.430Z,88.19
2023-01-17T18:53:10.037Z,88.54
2023-01-17T18:56:18.856Z,88.70
2023-01-17T18:59:23.378Z,88.84
2023-01-17T19:02:26.992Z,88.56
2023-01-17T19:05:29.458Z,89.50
2023-01-17T19:08:34.004Z,89.34
2023-01-17T19:11:36.915Z,89.45
2023-01-17T19:14:39.986Z,88.69
2023-01-17T19:17:42.549Z,88.82
2023-01-17T19:20:45.959Z,90.02
2023-01-17T19:23:48.918Z,89.92
2023-01-17T19:26:53.239Z,90.36
2023-01-17T19:29:55.940Z,89.41
2023-01-17T19:32:58.587Z,89.49
2023-01-17T19:36:03.734Z,90.67
2023-01-17T19:39:09.488Z,90.39
2023-01-17T19:42:15.651Z,90.65
2023-01-17T19:45:18.319Z,91.18
2023-01-17T19:48:22.573Z,91.39
2023-01-17T19:51:26.830Z,90.89
2023-01-17T19:54:29.464Z,91.52
2023-01-17T19:57:34.993Z,91.73
2023-01-17T20:00:46.134Z,92.12
2023-01-17T20:03:50.103Z,91.98
2023-01-17T20:06:53.570Z,92.07
2023-01-17T20:09:56.140Z,91.56
2023-01-17T20:12:58.731Z,91.92
2023-01-17T20:16:03.840Z,91.63
2023-01-17T20:19:06.733Z,91.46
2023-01-17T20:22:09.302Z,90.79
2023-01-17T20:25:12.305Z,90.96
2023-01-17T20:28:14.846Z,90.30
2023-01-17T20:31:27.445Z,90.75
2023-01-17T20:34:31.497Z,90.21
2023-01-17T20:37:34.173Z,90.75
2023-01-17T20:40:36.833Z,90.47
2023-01-17T20:43:40.073Z,89.99
2023-01-17T20:46:43.063Z,91.09
2023-01-17T20:49:45.657Z,90.39
2023-01-17T20:52:51.143Z,90.50
2023-01-17T20:55:57.469Z,91.17
2023-01-17T20:59:03.928Z,91.36
2023-01-17T21:02:09.995Z,91.53
2023-01-17T21:05:12.940Z,92.25
2023-01-17T21:08:17.767Z,91.68
2023-01-17T21:11:23.693Z,92.42
2023-01-17T21:14:26.443Z,91.70
2023-01-17T21:17:29.072Z,92.89
2023-01-17T21:20:34.717Z,92.39
2023-01-17T21:23:39.035Z,91.99
2023-01-17T21:26:44.435Z,92.08
2023-01-17T21:29:47.528Z,91.50
2023-01-17T21:32:49.995Z,91.58
2023-01-17T21:35:52.970Z,91.42
2023-01-17T21:38:57.802Z,91.28
2023-01-17T21:42:00.602Z,91.17
2023-01-17T21:45:03.008Z,90.79
2023-01-17T21:48:12.070Z,90.35
2023-01-17T21:51:14.710Z,90.62
2023-01-17T21:54:17.060Z,91.58
2023-01-17T21:57:40.251Z,90.88
2023-01-17T22:00:43.395Z,90.41
2023-01-17T22:03:52.740Z,90.81
2023-01-17T22:06:55.101Z,90.79
2023-01-17T22:09:57.557Z,90.90
2023-01-17T22:13:00.036Z,91.13
2023-01-17T22:16:04.727Z,90.83
2023-01-17T22:19:08.160Z,90.88
2023-01-17T22:22:10.507Z,91.10
2023-01-17T22:25:12.852Z,90.25
2023-01-17T22:28:15.267Z,90.29
2023-01-17T22:31:19.277Z,90.00
2023-01-17T22:34:22.848Z,90.32
2023-01-17T22:37:25.697Z,89.53
2023-01-17T22:40:28.768Z,90.32
2023-01-17T22:43:31.074Z,89.87
2023-01-17T22:46:37.180Z,89.60
2023-01-17T22:49:39.652Z,90.03
2023-01-17T22:52:41.983Z,89.75
2023-01-17T22:55:44.344Z,89.98
2023-01-17T22:58:49.090Z,88.96
2023-01-17T23:01:51.937Z,89.35
2023-01-17T23:04:54.370Z,89.03
2023-01-17T23:07:57.192Z,88.52
2023-01-17T23:11:37.800Z,89.64
2023-01-17T23:14:58.737Z,89.67
2023-01-17T23:18:19.473Z,88.75
2023-01-17T23:21:22.178Z,89.50
2023-01-17T23:24:24.750Z,89.26
2023-01-17T23:28:05.336Z,88.89
2023-01-17T23:31:10.272Z,87.91
2023-01-17T23:34:12.596Z,87.62
2023-01-17T23:37:15.187Z,87.50
2023-01-17T23:40:18.199Z,87.30
2023-01-17T23:43:23.628Z,86.81
2023-01-17T23:46:26.568Z,87.50
2023-01-17T23:49:31.345Z,87.00
2023-01-17T23:52:33.748Z,86.94
2023-01-17T23:55:41.944Z,86.79
2023-01-17T23:58:44.510Z,87.20
